Welcome to La Porte Aviation Services!

An aviation adventure awaits

Current Weather Conditions

Available data for KPPO from the past 2 hours
LA PORTE, IN
Metar
KPPO 191235Z AUTO 32003KT 10SM CLR 19/18 A2995 RMK AO2 T01910175

12:35 UTC

Wind: 320° 3kt

Visibility: 10 SM

Sky:

Temp: 19 deg C / 66.2 deg F

Dewpoint: 18 deg C / 64.4 deg F

Pressure: 29.95 inHg

Pirep (1)
AZO UA /OV AZO/TM 1146/FL330/TP E190/TB LGT CHOP

Connect with us on Facebook!

Facebook By Weblizar Powered By Weblizar